createdAt,value
2023-01-19T00:00:14.332Z,865.8
2023-01-19T00:01:58.054Z,863.1
2023-01-19T00:03:41.672Z,858.8
2023-01-19T00:05:25.460Z,853.6
2023-01-19T00:07:09.184Z,847.7
2023-01-19T00:08:52.681Z,843.4
2023-01-19T00:10:36.562Z,837.2
2023-01-19T00:12:20.242Z,830.9
2023-01-19T00:14:03.911Z,825.6
2023-01-19T00:15:47.531Z,823
2023-01-19T00:17:31.172Z,823.2
2023-01-19T00:19:15.037Z,818.5
2023-01-19T00:20:58.727Z,818.9
2023-01-19T00:22:42.433Z,814.1
2023-01-19T00:24:26.138Z,808.7
2023-01-19T00:26:09.827Z,805.5
2023-01-19T00:27:53.527Z,800.8
2023-01-19T00:29:37.250Z,800.8
2023-01-19T00:31:20.906Z,799.1
2023-01-19T00:33:04.656Z,795.3
2023-01-19T00:34:48.364Z,792.8
2023-01-19T00:36:32.069Z,788.7
2023-01-19T00:38:15.768Z,788.3
2023-01-19T00:39:59.507Z,786.7
2023-01-19T00:41:43.098Z,784.7
2023-01-19T00:43:26.795Z,779.5
2023-01-19T00:45:10.547Z,775.8
2023-01-19T00:46:54.090Z,769.9
2023-01-19T00:48:37.915Z,763.6
2023-01-19T00:50:21.494Z,757.4
2023-01-19T00:52:05.328Z,755.8
2023-01-19T00:53:49.066Z,751.5
2023-01-19T00:55:32.723Z,747.4
2023-01-19T00:57:16.456Z,746.3
2023-01-19T00:59:00.124Z,745
2023-01-19T01:00:43.757Z,740.4
2023-01-19T01:02:27.573Z,734.6
2023-01-19T01:04:11.267Z,730.5
2023-01-19T01:05:54.936Z,727
2023-01-19T01:07:38.679Z,725.2
2023-01-19T01:09:22.367Z,722.5
2023-01-19T01:11:06.059Z,720.4
2023-01-19T01:12:49.780Z,719.9
2023-01-19T01:14:33.540Z,719.7
2023-01-19T01:16:17.200Z,716.3
2023-01-19T01:18:00.933Z,714.6
2023-01-19T01:19:44.428Z,710.9
2023-01-19T01:21:28.288Z,707.4
2023-01-19T01:23:11.970Z,703.6
2023-01-19T01:24:55.525Z,698.3
2023-01-19T01:26:39.355Z,693.5
2023-01-19T01:28:23.057Z,689.9
2023-01-19T01:30:06.747Z,687
2023-01-19T01:31:50.498Z,684.3
2023-01-19T01:33:34.144Z,682
2023-01-19T01:35:17.933Z,680.6
2023-01-19T01:37:01.622Z,676.2
2023-01-19T01:38:45.328Z,672.7
2023-01-19T01:40:28.990Z,670.1
2023-01-19T01:42:12.531Z,668.2
2023-01-19T01:43:56.434Z,665.6
2023-01-19T01:45:40.175Z,665
2023-01-19T01:47:23.772Z,667.6
2023-01-19T01:49:07.584Z,670.2
2023-01-19T01:50:51.153Z,669.2
2023-01-19T01:52:34.713Z,668
2023-01-19T01:54:18.611Z,663.8
2023-01-19T01:56:02.326Z,657.7
2023-01-19T01:57:45.972Z,656.4
2023-01-19T01:59:29.737Z,655.1
2023-01-19T02:01:13.387Z,654
2023-01-19T02:02:57.113Z,653.6
2023-01-19T02:04:40.804Z,654.2
2023-01-19T02:06:24.477Z,651.9
2023-01-19T02:08:08.033Z,648.5
2023-01-19T02:09:51.731Z,647.6
2023-01-19T02:11:35.409Z,645.3
2023-01-19T02:15:03.085Z,642.8
2023-01-19T02:16:46.718Z,639.1
2023-01-19T02:18:30.429Z,635.6
2023-01-19T02:20:14.169Z,632.4
2023-01-19T02:21:57.759Z,632.7
2023-01-19T02:23:41.421Z,627.5
2023-01-19T02:25:25.256Z,623.3
2023-01-19T02:27:08.899Z,622
2023-01-19T02:28:52.567Z,619.8
2023-01-19T02:30:36.292Z,617.8
2023-01-19T02:32:20.023Z,614
2023-01-19T02:34:03.522Z,610.4
2023-01-19T02:35:47.222Z,611.2
2023-01-19T02:37:31.094Z,608.7
2023-01-19T02:39:14.831Z,608.3
2023-01-19T02:40:58.547Z,608.6
2023-01-19T02:42:42.158Z,606.8
2023-01-19T02:44:25.923Z,605.2
2023-01-19T02:46:09.585Z,603.1
2023-01-19T02:47:53.334Z,600.9
2023-01-19T02:49:36.833Z,599.4
2023-01-19T02:51:20.722Z,598.9
2023-01-19T02:53:04.285Z,598.4
2023-01-19T02:54:48.120Z,596.8
2023-01-19T02:56:31.741Z,600.7
2023-01-19T02:58:15.558Z,601.1
2023-01-19T02:59:59.155Z,600
2023-01-19T03:01:42.982Z,598.7
2023-01-19T03:03:26.564Z,596.3
2023-01-19T03:05:10.355Z,594
2023-01-19T03:06:53.993Z,591.3
2023-01-19T03:08:37.728Z,587.4
2023-01-19T03:10:21.341Z,586.7
2023-01-19T03:12:05.145Z,585.2
2023-01-19T03:13:48.763Z,581.9
2023-01-19T03:15:32.509Z,578.3
2023-01-19T03:17:16.249Z,577.5
2023-01-19T03:18:59.876Z,578.1
2023-01-19T03:20:43.540Z,577.3
2023-01-19T03:22:27.384Z,571.5
2023-01-19T03:24:11.080Z,569.6
2023-01-19T03:25:54.747Z,570.2
2023-01-19T03:27:38.429Z,570
2023-01-19T03:29:22.143Z,571.7
2023-01-19T03:31:05.764Z,567.6
2023-01-19T03:32:49.420Z,565.5
2023-01-19T03:34:33.326Z,563.4
2023-01-19T03:36:16.821Z,562.4
2023-01-19T03:38:00.640Z,560.9
2023-01-19T03:39:44.328Z,560.9
2023-01-19T03:41:28.110Z,558.8
2023-01-19T03:43:11.684Z,557.9
2023-01-19T03:44:55.281Z,559.7
2023-01-19T03:46:39.125Z,559.6
2023-01-19T03:48:22.778Z,558.4
2023-01-19T03:50:06.518Z,556.9
2023-01-19T03:51:50.231Z,550.7
2023-01-19T03:53:33.921Z,548.9
2023-01-19T03:55:17.472Z,549
2023-01-19T03:57:01.317Z,548.7
2023-01-19T03:58:44.993Z,546.8
2023-01-19T04:00:28.595Z,546.1
2023-01-19T04:02:12.436Z,544.3
2023-01-19T04:03:56.145Z,542.8
2023-01-19T04:05:39.899Z,542.2
2023-01-19T04:07:23.576Z,539.6
2023-01-19T04:09:07.352Z,540.8
2023-01-19T04:10:51.012Z,544.1
2023-01-19T04:12:34.543Z,545.2
2023-01-19T04:14:18.383Z,545.5
2023-01-19T04:16:02.153Z,544
2023-01-19T04:17:45.874Z,543.7
2023-01-19T04:19:29.495Z,542.6
2023-01-19T04:21:13.268Z,539.5
2023-01-19T04:22:56.888Z,539.8
2023-01-19T04:24:40.612Z,541.9
2023-01-19T04:26:24.159Z,538.8
2023-01-19T04:28:08.009Z,537.5
2023-01-19T04:29:51.859Z,538.2
2023-01-19T04:31:35.304Z,538.3
2023-01-19T04:33:19.102Z,541.4
2023-01-19T04:35:02.792Z,543.4
2023-01-19T04:36:46.553Z,547.5
2023-01-19T04:38:29.992Z,547
2023-01-19T04:40:13.766Z,547.3
2023-01-19T04:41:57.684Z,546.4
2023-01-19T04:43:41.370Z,544.5
2023-01-19T04:45:24.983Z,543.9
2023-01-19T04:47:08.650Z,543
2023-01-19T04:48:52.416Z,540.4
2023-01-19T04:50:36.142Z,539.5
2023-01-19T04:52:19.765Z,537.9
2023-01-19T04:54:03.489Z,536.5
2023-01-19T04:55:47.248Z,536.4
2023-01-19T04:57:30.900Z,536
2023-01-19T04:59:14.627Z,534.5
2023-01-19T05:00:58.123Z,533.7
2023-01-19T05:02:41.987Z,531
2023-01-19T05:04:25.874Z,528.9
2023-01-19T05:06:09.420Z,528.3
2023-01-19T05:07:53.104Z,526.5
2023-01-19T05:09:36.775Z,525.6
2023-01-19T05:11:20.341Z,525.5
2023-01-19T05:13:04.225Z,524.9
2023-01-19T05:14:47.917Z,525.8
2023-01-19T05:16:31.611Z,521.6
2023-01-19T05:18:15.285Z,515.5
2023-01-19T05:19:59.075Z,513.4
2023-01-19T05:21:42.730Z,513.9
2023-01-19T05:23:26.223Z,511.1
2023-01-19T05:25:10.244Z,512.8
2023-01-19T05:26:53.769Z,515.4
2023-01-19T05:28:37.516Z,515.7
2023-01-19T05:30:21.207Z,512.1
2023-01-19T05:32:04.899Z,511.4
2023-01-19T05:33:48.633Z,508.8
2023-01-19T05:35:32.357Z,509.6
2023-01-19T05:37:16.106Z,508.8
2023-01-19T05:38:59.738Z,508.8
2023-01-19T05:40:43.245Z,507.4
2023-01-19T05:42:27.150Z,508.1
2023-01-19T05:44:10.846Z,509.1
2023-01-19T05:45:54.467Z,510.4
2023-01-19T05:47:38.209Z,510.3
2023-01-19T05:49:21.951Z,510.8
2023-01-19T05:51:05.651Z,508.7
2023-01-19T05:52:49.302Z,505.9
2023-01-19T05:54:33.090Z,500.8
2023-01-19T05:56:16.766Z,503.1
2023-01-19T05:58:00.397Z,501.5
2023-01-19T05:59:43.989Z,502.1
2023-01-19T06:01:27.881Z,501.2
2023-01-19T06:03:11.554Z,501.9
2023-01-19T06:04:55.245Z,504.3
2023-01-19T06:06:38.751Z,504.1
2023-01-19T06:08:22.711Z,505.5
2023-01-19T06:10:06.355Z,504.9
2023-01-19T06:11:50.033Z,505.3
2023-01-19T06:13:33.674Z,504.4
2023-01-19T06:15:17.468Z,505.1
2023-01-19T06:17:01.188Z,505.5
2023-01-19T06:18:44.826Z,504.6
2023-01-19T06:20:28.533Z,504.1
2023-01-19T06:22:12.217Z,503.4
2023-01-19T06:23:55.802Z,502.1
2023-01-19T06:25:39.591Z,501.3
2023-01-19T06:27:23.404Z,500.6
2023-01-19T06:29:07.080Z,502.2
2023-01-19T06:30:50.600Z,502.8
2023-01-19T06:32:34.395Z,502
2023-01-19T06:34:18.191Z,498.6
2023-01-19T06:36:01.800Z,496
2023-01-19T06:37:45.607Z,495
2023-01-19T06:39:29.295Z,493.5
2023-01-19T06:41:13.017Z,496.2
2023-01-19T06:42:56.638Z,494.5
2023-01-19T06:44:40.355Z,494.8
2023-01-19T06:46:23.924Z,496.9
2023-01-19T06:48:07.762Z,495.5
2023-01-19T06:49:51.531Z,494.8
2023-01-19T06:51:35.189Z,491.7
2023-01-19T06:53:18.712Z,492.4
2023-01-19T06:55:02.633Z,491.1
2023-01-19T06:56:46.203Z,491
2023-01-19T06:58:29.977Z,488.8
2023-01-19T07:00:13.682Z,486.7
2023-01-19T07:01:57.409Z,488.4
2023-01-19T07:03:40.997Z,489
2023-01-19T07:05:24.785Z,488.9
2023-01-19T07:07:08.504Z,486.5
2023-01-19T07:08:52.039Z,486.3
2023-01-19T07:10:35.833Z,487.6
2023-01-19T07:12:19.600Z,486.9
2023-01-19T07:14:03.163Z,487.8
2023-01-19T07:15:47.032Z,487.5
2023-01-19T07:17:30.526Z,485.1
2023-01-19T07:19:14.282Z,484.3
2023-01-19T07:20:58.092Z,484.1
2023-01-19T07:22:41.768Z,483.2
2023-01-19T07:24:25.546Z,480.3
2023-01-19T07:26:09.192Z,481.7
2023-01-19T07:27:52.726Z,481.3
2023-01-19T07:29:36.575Z,483.5
2023-01-19T07:31:20.313Z,483.8
2023-01-19T07:33:03.943Z,487.2
2023-01-19T07:34:47.676Z,493.6
2023-01-19T07:36:31.382Z,502.1
2023-01-19T07:38:15.109Z,511.6
2023-01-19T07:39:58.767Z,541.1
2023-01-19T07:41:42.493Z,561.1
2023-01-19T07:43:26.210Z,571.4
2023-01-19T07:45:09.900Z,574.9
2023-01-19T07:46:53.446Z,576.1
2023-01-19T07:48:37.282Z,573.2
2023-01-19T07:50:21.019Z,574.8
2023-01-19T07:52:04.709Z,580.1
2023-01-19T07:53:48.466Z,586.3
2023-01-19T07:55:32.146Z,605.9
2023-01-19T07:57:15.718Z,614.5
2023-01-19T07:58:59.528Z,634.8
2023-01-19T08:00:43.166Z,624
2023-01-19T08:02:26.757Z,615.1
2023-01-19T08:04:10.600Z,614.6
2023-01-19T08:05:54.345Z,615.3
2023-01-19T08:07:37.975Z,616.8
2023-01-19T08:09:21.700Z,610.1
2023-01-19T08:11:05.415Z,606.2
2023-01-19T08:12:48.958Z,609.5
2023-01-19T08:14:32.721Z,610.2
2023-01-19T08:16:16.404Z,609.6
2023-01-19T08:18:00.119Z,609.3
2023-01-19T08:19:43.807Z,612.9
2023-01-19T08:21:27.575Z,618
2023-01-19T08:23:11.328Z,621.8
2023-01-19T08:24:54.901Z,621.8
2023-01-19T08:26:38.624Z,623.7
2023-01-19T08:28:22.526Z,623.8
2023-01-19T08:30:05.992Z,623.6
2023-01-19T08:31:49.741Z,622.2
2023-01-19T08:33:33.391Z,623.1
2023-01-19T08:35:17.089Z,620.4
2023-01-19T08:37:00.787Z,613.5
2023-01-19T08:38:44.494Z,616.5
2023-01-19T08:40:28.187Z,619.8
2023-01-19T08:42:11.929Z,617.9
2023-01-19T08:43:55.588Z,614.4
2023-01-19T08:45:39.286Z,612.7
2023-01-19T08:47:23.012Z,609.9
2023-01-19T08:49:06.697Z,607.6
2023-01-19T08:50:50.387Z,608.4
2023-01-19T08:52:34.098Z,610
2023-01-19T08:54:17.803Z,609.3
2023-01-19T08:56:01.512Z,609.6
2023-01-19T08:57:45.223Z,611.1
2023-01-19T08:59:29.104Z,610.1
2023-01-19T09:01:12.765Z,605.1
2023-01-19T09:02:56.425Z,602.8
2023-01-19T09:04:40.170Z,602.7
2023-01-19T09:06:23.839Z,600.8
2023-01-19T09:08:07.515Z,598.2
2023-01-19T09:09:51.155Z,599
2023-01-19T09:11:34.930Z,598.2
2023-01-19T09:13:18.538Z,594.7
2023-01-19T09:15:02.199Z,592.4
2023-01-19T09:16:45.902Z,593.7
2023-01-19T09:18:29.624Z,589.7
2023-01-19T09:20:13.295Z,586.9
2023-01-19T09:21:57.013Z,590
2023-01-19T09:23:40.747Z,589.6
2023-01-19T09:25:24.497Z,589.1
2023-01-19T09:27:08.157Z,591.5
2023-01-19T09:28:51.932Z,593.2
2023-01-19T09:30:35.597Z,590.3
2023-01-19T09:32:19.229Z,588.2
2023-01-19T09:34:02.928Z,590.4
2023-01-19T09:35:46.648Z,592.1
2023-01-19T09:37:30.319Z,593
2023-01-19T09:39:14.047Z,593.1
2023-01-19T09:40:57.760Z,595.9
2023-01-19T09:42:41.449Z,597.7
2023-01-19T09:44:25.133Z,599.7
2023-01-19T09:46:08.856Z,598.7
2023-01-19T09:47:52.630Z,599.8
2023-01-19T09:49:36.247Z,600.4
2023-01-19T09:53:03.681Z,605.7
2023-01-19T09:54:47.481Z,611.2
2023-01-19T09:56:31.059Z,619.4
2023-01-19T09:58:14.768Z,623.3
2023-01-19T09:59:58.512Z,623.2
2023-01-19T10:01:42.218Z,622.3
2023-01-19T10:03:25.943Z,623.9
2023-01-19T10:05:09.606Z,626.4
2023-01-19T10:06:53.341Z,631.4
2023-01-19T10:08:37.039Z,635.1
2023-01-19T10:10:20.765Z,636
2023-01-19T10:12:04.431Z,638.2
2023-01-19T10:13:48.191Z,641.5
2023-01-19T10:15:31.803Z,640.4
2023-01-19T10:17:15.503Z,639.4
2023-01-19T10:18:59.253Z,641
2023-01-19T10:20:42.894Z,642.6
2023-01-19T10:22:26.676Z,645
2023-01-19T10:24:10.321Z,648.4
2023-01-19T10:25:54.012Z,648.2
2023-01-19T10:27:37.719Z,651.3
2023-01-19T10:29:21.405Z,656.5
2023-01-19T10:31:05.101Z,673.4
2023-01-19T10:32:48.971Z,684.9
2023-01-19T10:34:32.569Z,689.7
2023-01-19T10:36:16.239Z,691.2
2023-01-19T10:37:59.963Z,690.1
2023-01-19T10:39:43.626Z,689.9
2023-01-19T10:41:27.343Z,689.9
2023-01-19T10:43:11.021Z,690.2
2023-01-19T10:44:54.758Z,693.4
2023-01-19T10:46:38.443Z,697.8
2023-01-19T10:48:22.156Z,701
2023-01-19T10:50:05.835Z,703.2
2023-01-19T10:51:49.602Z,708.2
2023-01-19T10:53:33.231Z,711
2023-01-19T10:55:16.984Z,716.1
2023-01-19T10:57:00.662Z,732.8
2023-01-19T10:58:44.360Z,762.9
2023-01-19T11:00:28.056Z,785.2
2023-01-19T11:02:11.774Z,795
2023-01-19T11:03:55.460Z,807.1
2023-01-19T11:05:39.162Z,814.4
2023-01-19T11:07:22.882Z,817.7
2023-01-19T11:09:06.577Z,824.3
2023-01-19T11:10:50.275Z,832
2023-01-19T11:12:34.111Z,838.7
2023-01-19T11:14:17.699Z,836.5
2023-01-19T11:16:01.403Z,832
2023-01-19T11:17:45.075Z,794.7
2023-01-19T11:19:28.783Z,783.1
2023-01-19T11:21:12.491Z,773.5
2023-01-19T11:22:56.181Z,768.9
2023-01-19T11:24:39.899Z,766
2023-01-19T11:26:23.602Z,764.4
2023-01-19T11:28:07.310Z,759.1
2023-01-19T11:29:50.989Z,755
2023-01-19T11:31:34.703Z,753.7
2023-01-19T11:33:18.394Z,751.5
2023-01-19T11:35:02.084Z,752.4
2023-01-19T11:36:45.789Z,761.3
2023-01-19T11:38:29.518Z,795.3
2023-01-19T11:40:13.253Z,807.3
2023-01-19T11:41:57.015Z,820.5
2023-01-19T11:43:40.685Z,826.8
2023-01-19T11:45:24.346Z,823.2
2023-01-19T11:47:08.063Z,818.3
2023-01-19T11:48:51.754Z,820.1
2023-01-19T11:50:35.464Z,823.5
2023-01-19T11:52:19.171Z,833.2
2023-01-19T11:54:02.869Z,841.3
2023-01-19T11:55:46.583Z,835.8
2023-01-19T11:57:30.279Z,826.7
2023-01-19T11:59:13.967Z,817.1
2023-01-19T12:00:57.665Z,812.9
2023-01-19T12:02:41.371Z,808.8
2023-01-19T12:04:25.082Z,808
2023-01-19T12:06:08.804Z,808.7
2023-01-19T12:07:52.593Z,804.4
2023-01-19T12:09:36.167Z,801.9
2023-01-19T12:11:19.865Z,800.5
2023-01-19T12:13:03.638Z,798.4
2023-01-19T12:14:47.263Z,795
2023-01-19T12:16:30.953Z,794.8
2023-01-19T12:18:14.754Z,794.4
2023-01-19T12:19:58.356Z,796.9
2023-01-19T12:21:42.086Z,798.2
2023-01-19T12:23:25.794Z,801.7
2023-01-19T12:25:09.467Z,800.1
2023-01-19T12:26:53.181Z,808.2
2023-01-19T12:28:36.851Z,821.5
2023-01-19T12:30:20.569Z,842
2023-01-19T12:32:04.264Z,851.9
2023-01-19T12:33:47.963Z,863.4
2023-01-19T12:37:15.369Z,882.5
2023-01-19T12:38:59.063Z,886.8
2023-01-19T12:42:26.462Z,891.3
2023-01-19T12:44:10.170Z,894.7
2023-01-19T12:45:53.879Z,903.3
2023-01-19T12:47:37.569Z,911.6
2023-01-19T12:49:21.289Z,915
2023-01-19T12:51:04.965Z,895.7
2023-01-19T12:52:48.664Z,878
2023-01-19T12:54:32.372Z,872.5
2023-01-19T12:56:16.077Z,873.8
2023-01-19T12:57:59.771Z,868.8
2023-01-19T12:59:43.463Z,861.7
2023-01-19T13:01:27.173Z,852.9
2023-01-19T13:03:10.863Z,846.9
2023-01-19T13:04:54.581Z,839.1
2023-01-19T13:06:38.286Z,834.5
2023-01-19T13:08:21.993Z,828.8
2023-01-19T13:10:05.696Z,823.3
2023-01-19T13:11:49.381Z,820.7
2023-01-19T13:13:33.089Z,816
2023-01-19T13:15:16.801Z,808.7
2023-01-19T13:17:00.487Z,803.1
2023-01-19T13:18:44.188Z,801
2023-01-19T13:20:27.922Z,797
2023-01-19T13:22:11.625Z,791.5
2023-01-19T13:23:55.275Z,788.3
2023-01-19T13:25:38.977Z,786.3
2023-01-19T13:27:22.694Z,785
2023-01-19T13:29:06.395Z,781
2023-01-19T13:30:50.113Z,778.5
2023-01-19T13:34:17.507Z,773.1
2023-01-19T13:36:01.202Z,767.6
2023-01-19T13:37:44.904Z,763.4
2023-01-19T13:39:28.660Z,762.5
2023-01-19T13:41:12.364Z,757.5
2023-01-19T13:42:56.066Z,753.9
2023-01-19T13:44:39.760Z,750.9
2023-01-19T13:46:23.500Z,748.8
2023-01-19T13:48:07.232Z,746.2
2023-01-19T13:49:50.863Z,742.9
2023-01-19T13:51:34.560Z,739.7
2023-01-19T13:53:18.288Z,738.8
2023-01-19T13:55:01.985Z,736.9
2023-01-19T13:56:45.692Z,734.4
2023-01-19T13:58:29.371Z,731.3
2023-01-19T14:00:13.044Z,729
2023-01-19T14:01:56.750Z,724.6
2023-01-19T14:03:40.425Z,726.9
2023-01-19T14:05:24.152Z,753.1
2023-01-19T14:07:07.959Z,750.8
2023-01-19T14:08:51.559Z,746.2
2023-01-19T14:10:35.256Z,741.6
2023-01-19T14:12:18.943Z,737.6
2023-01-19T14:14:02.662Z,733.4
2023-01-19T14:15:46.362Z,732.7
2023-01-19T14:17:30.086Z,730.6
2023-01-19T14:19:13.843Z,731.9
2023-01-19T14:20:57.479Z,734.6
2023-01-19T14:22:41.174Z,730.1
2023-01-19T14:24:24.888Z,728.4
2023-01-19T14:26:08.586Z,725.1
2023-01-19T14:27:52.272Z,724.5
2023-01-19T14:29:36.000Z,719.3
2023-01-19T14:31:19.684Z,715.5
2023-01-19T14:33:03.411Z,714.2
2023-01-19T14:34:47.135Z,714
2023-01-19T14:36:30.785Z,715.7
2023-01-19T14:38:14.499Z,719.5
2023-01-19T14:39:58.207Z,718.4
2023-01-19T14:41:41.925Z,717
2023-01-19T14:43:25.609Z,717.7
2023-01-19T14:45:09.339Z,717.4
2023-01-19T14:46:53.010Z,715.6
2023-01-19T14:48:36.743Z,711.2
2023-01-19T14:50:20.472Z,707.5
2023-01-19T14:52:04.170Z,704.2
2023-01-19T14:53:47.812Z,702.1
2023-01-19T14:55:31.553Z,702.8
2023-01-19T14:57:15.258Z,697.6
2023-01-19T14:58:58.986Z,695.3
2023-01-19T15:00:42.628Z,693.1
2023-01-19T15:02:26.331Z,693
2023-01-19T15:04:10.052Z,688.5
2023-01-19T15:05:53.744Z,686.5
2023-01-19T15:07:37.421Z,687.2
2023-01-19T15:09:21.194Z,683.3
2023-01-19T15:11:04.845Z,682.8
2023-01-19T15:12:48.537Z,684.1
2023-01-19T15:14:32.222Z,685.3
2023-01-19T15:16:15.923Z,684.6
2023-01-19T15:17:59.644Z,687.7
2023-01-19T15:19:43.344Z,689.2
2023-01-19T15:21:27.053Z,688.8
2023-01-19T15:23:10.737Z,688.3
2023-01-19T15:24:54.446Z,688.1
2023-01-19T15:26:38.152Z,687.3
2023-01-19T15:28:21.843Z,687
2023-01-19T15:30:05.557Z,686.8
2023-01-19T15:31:49.299Z,688.4
2023-01-19T15:33:32.982Z,688.6
2023-01-19T15:35:16.644Z,686.7
2023-01-19T15:37:00.371Z,684.3
2023-01-19T15:38:44.073Z,684.9
2023-01-19T15:40:27.745Z,684
2023-01-19T15:42:11.476Z,682.5
2023-01-19T15:43:55.164Z,683.1
2023-01-19T15:45:38.874Z,683.1
2023-01-19T15:47:22.561Z,683
2023-01-19T15:49:06.340Z,679.1
2023-01-19T15:50:49.980Z,679
2023-01-19T15:52:33.672Z,676.1
2023-01-19T15:54:17.408Z,675.6
2023-01-19T15:56:01.061Z,675.6
2023-01-19T15:57:44.754Z,672.7
2023-01-19T15:59:28.475Z,670.9
2023-01-19T16:01:12.165Z,668.7
2023-01-19T16:02:55.853Z,673
2023-01-19T16:04:39.566Z,669.7
2023-01-19T16:06:23.268Z,665.9
2023-01-19T16:08:06.989Z,660.8
2023-01-19T16:09:50.682Z,659.9
2023-01-19T16:11:34.355Z,657.4
2023-01-19T16:13:18.108Z,655.3
2023-01-19T16:15:01.845Z,654.9
2023-01-19T16:16:45.452Z,651.8
2023-01-19T16:18:29.169Z,650.5
2023-01-19T16:20:12.875Z,650.7
2023-01-19T16:21:56.569Z,649
2023-01-19T16:23:40.275Z,646.3
2023-01-19T16:25:23.963Z,644.7
2023-01-19T16:27:07.669Z,641.6
2023-01-19T16:28:51.389Z,635.5
2023-01-19T16:30:35.132Z,635.9
2023-01-19T16:32:18.780Z,637.6
2023-01-19T16:34:02.455Z,634.6
2023-01-19T16:35:46.181Z,628.8
2023-01-19T16:37:29.876Z,626.2
2023-01-19T16:39:13.577Z,624
2023-01-19T16:40:57.271Z,625.1
2023-01-19T16:42:40.987Z,620.1
2023-01-19T16:44:24.682Z,616.4
2023-01-19T16:46:08.378Z,614.3
2023-01-19T16:47:52.082Z,612.2
2023-01-19T16:49:35.782Z,611.8
2023-01-19T16:51:19.505Z,606.5
2023-01-19T16:53:03.186Z,606.3
2023-01-19T16:54:46.900Z,606.7
2023-01-19T16:56:30.697Z,607.4
2023-01-19T16:58:14.357Z,606
2023-01-19T16:59:58.059Z,602.2
2023-01-19T17:01:41.740Z,601
2023-01-19T17:03:25.431Z,600.4
2023-01-19T17:05:09.162Z,599.6
2023-01-19T17:06:52.887Z,600
2023-01-19T17:08:36.587Z,599.4
2023-01-19T17:10:20.201Z,600.3
2023-01-19T17:12:03.926Z,600.1
2023-01-19T17:13:47.624Z,596.3
2023-01-19T17:15:31.350Z,592.6
2023-01-19T17:17:15.026Z,589.7
2023-01-19T17:18:58.729Z,586.3
2023-01-19T17:20:42.143Z,585.1
2023-01-19T17:22:25.851Z,585.6
2023-01-19T17:24:09.527Z,586.9
2023-01-19T17:25:53.223Z,587.3
2023-01-19T17:27:36.931Z,585.9
2023-01-19T17:29:20.627Z,583.3
2023-01-19T17:31:04.324Z,580
2023-01-19T17:32:48.063Z,583
2023-01-19T17:34:31.715Z,581.9
2023-01-19T17:36:15.484Z,583.1
2023-01-19T17:37:59.133Z,581.5
2023-01-19T17:39:42.834Z,577.6
2023-01-19T17:41:26.514Z,577.4
2023-01-19T17:43:10.228Z,576.4
2023-01-19T17:44:53.935Z,572.6
2023-01-19T17:46:37.635Z,572
2023-01-19T17:48:21.335Z,572.7
2023-01-19T17:50:05.017Z,572.9
2023-01-19T17:51:48.738Z,570.3
2023-01-19T17:53:32.447Z,569.4
2023-01-19T17:55:16.132Z,568
2023-01-19T17:56:59.858Z,564.9
2023-01-19T17:58:43.566Z,561.5
2023-01-19T18:00:27.250Z,560.9
2023-01-19T18:02:10.953Z,561.6
2023-01-19T18:03:54.674Z,558.7
2023-01-19T18:05:38.355Z,558.9
2023-01-19T18:07:22.048Z,557.6
2023-01-19T18:09:05.756Z,556
2023-01-19T18:10:49.444Z,555.5
2023-01-19T18:12:33.153Z,553
2023-01-19T18:14:16.846Z,550.5
2023-01-19T18:16:00.568Z,551
2023-01-19T18:17:44.260Z,552.4
2023-01-19T18:19:27.965Z,554
2023-01-19T18:21:11.675Z,550.8
2023-01-19T18:22:55.366Z,548.3
2023-01-19T18:24:39.053Z,546.4
2023-01-19T18:26:22.749Z,545.7
2023-01-19T18:28:06.454Z,545.1
2023-01-19T18:29:50.157Z,541.4
2023-01-19T18:31:33.849Z,537.2
2023-01-19T18:33:17.540Z,536.3
2023-01-19T18:35:01.273Z,535.8
2023-01-19T18:36:44.944Z,535.2
2023-01-19T18:38:28.660Z,534.4
2023-01-19T18:40:12.373Z,533.7
2023-01-19T18:41:56.061Z,533.5
2023-01-19T18:43:39.754Z,534.2
2023-01-19T18:45:23.462Z,536.8
2023-01-19T18:47:07.181Z,535.8
2023-01-19T18:48:50.917Z,532.2
2023-01-19T18:50:34.585Z,530.2
2023-01-19T18:52:18.346Z,528.5
2023-01-19T18:54:01.985Z,527.1
2023-01-19T18:55:45.683Z,523.4
2023-01-19T18:57:29.385Z,522.7
2023-01-19T18:59:13.100Z,523.4
2023-01-19T19:00:56.790Z,521.5
2023-01-19T19:02:40.491Z,525.1
2023-01-19T19:04:24.202Z,524.2
2023-01-19T19:06:07.912Z,522.2
2023-01-19T19:07:51.601Z,520.7
2023-01-19T19:09:35.321Z,514.4
2023-01-19T19:13:02.699Z,515.9
2023-01-19T19:14:46.407Z,510.9
2023-01-19T19:16:30.162Z,509.9
2023-01-19T19:18:13.828Z,510.9
2023-01-19T19:19:57.512Z,509.9
2023-01-19T19:21:41.210Z,510.5
2023-01-19T19:23:24.915Z,508.9
2023-01-19T19:25:08.742Z,510
2023-01-19T19:26:52.303Z,510.5
2023-01-19T19:28:36.030Z,508.1
2023-01-19T19:30:19.784Z,508.5
2023-01-19T19:32:03.422Z,507.6
2023-01-19T19:33:47.184Z,505.9
2023-01-19T19:35:30.841Z,504.6
2023-01-19T19:37:14.511Z,503.3
2023-01-19T19:38:58.225Z,504
2023-01-19T19:40:41.926Z,504.8
2023-01-19T19:42:25.660Z,502.1
2023-01-19T19:44:09.355Z,500.1
2023-01-19T19:45:53.060Z,498.9
2023-01-19T19:47:36.757Z,501.6
2023-01-19T19:49:20.467Z,501.1
2023-01-19T19:51:04.147Z,501.2
2023-01-19T19:52:47.865Z,501.8
2023-01-19T19:54:31.554Z,501.1
2023-01-19T19:56:15.292Z,500.8
2023-01-19T19:57:58.955Z,500.5
2023-01-19T19:59:42.679Z,498.4
2023-01-19T20:01:26.394Z,497.7
2023-01-19T20:03:10.070Z,498.2
2023-01-19T20:04:53.754Z,499
2023-01-19T20:06:37.461Z,499.2
2023-01-19T20:08:21.178Z,514.6
2023-01-19T20:10:04.877Z,533.8
2023-01-19T20:11:48.640Z,545.6
2023-01-19T20:13:32.289Z,556.3
2023-01-19T20:15:16.037Z,573.5
2023-01-19T20:16:59.681Z,585.4
2023-01-19T20:18:43.369Z,593
2023-01-19T20:20:27.083Z,596.2
2023-01-19T20:22:10.848Z,594.7
2023-01-19T20:23:54.484Z,592.4
2023-01-19T20:25:38.186Z,591.6
2023-01-19T20:27:21.890Z,590.5
2023-01-19T20:29:05.595Z,592.4
2023-01-19T20:30:49.294Z,595.6
2023-01-19T20:32:32.984Z,599.3
2023-01-19T20:34:16.713Z,606.3
2023-01-19T20:36:00.388Z,612.7
2023-01-19T20:37:44.094Z,619
2023-01-19T20:39:27.802Z,622.6
2023-01-19T20:41:11.482Z,624.2
2023-01-19T20:42:55.220Z,625.3
2023-01-19T20:44:38.954Z,627.5
2023-01-19T20:46:22.598Z,632.4
2023-01-19T20:48:06.298Z,636.6
2023-01-19T20:49:50.016Z,639
2023-01-19T20:51:33.702Z,642.8
2023-01-19T20:53:17.413Z,646.3
2023-01-19T20:55:01.110Z,648.9
2023-01-19T20:56:44.819Z,652
2023-01-19T20:58:28.514Z,655.5
2023-01-19T21:00:12.233Z,656.1
2023-01-19T21:01:55.930Z,657.9
2023-01-19T21:03:39.623Z,661.4
2023-01-19T21:05:23.328Z,664.1
2023-01-19T21:07:07.104Z,669
2023-01-19T21:08:50.718Z,673.6
2023-01-19T21:10:34.429Z,679.7
2023-01-19T21:12:18.129Z,686.9
2023-01-19T21:14:01.853Z,689.5
2023-01-19T21:15:45.549Z,689.3
2023-01-19T21:17:29.225Z,694.1
2023-01-19T21:19:12.926Z,704.4
2023-01-19T21:20:56.646Z,709.4
2023-01-19T21:22:40.326Z,711.5
2023-01-19T21:24:24.045Z,717.5
2023-01-19T21:26:07.718Z,719.1
2023-01-19T21:27:51.467Z,716.5
2023-01-19T21:29:35.141Z,717.5
2023-01-19T21:31:18.824Z,721
2023-01-19T21:33:02.547Z,723.9
2023-01-19T21:34:46.245Z,726.2
2023-01-19T21:36:29.946Z,728.7
2023-01-19T21:38:13.624Z,730.7
2023-01-19T21:39:57.335Z,734.1
2023-01-19T21:41:41.132Z,744.1
2023-01-19T21:43:24.793Z,751.5
2023-01-19T21:45:08.582Z,760
2023-01-19T21:46:52.180Z,763
2023-01-19T21:48:35.907Z,768.2
2023-01-19T21:50:19.624Z,770
2023-01-19T21:52:03.299Z,768.7
2023-01-19T21:53:47.027Z,767.4
2023-01-19T21:55:30.727Z,767.6
2023-01-19T21:57:14.391Z,765.2
2023-01-19T21:58:58.172Z,763.6
2023-01-19T22:00:41.814Z,761.1
2023-01-19T22:02:25.510Z,761.7
2023-01-19T22:04:09.204Z,762.1
2023-01-19T22:05:52.952Z,760.5
2023-01-19T22:07:36.620Z,758.6
2023-01-19T22:09:20.317Z,758.8
2023-01-19T22:11:03.993Z,760
2023-01-19T22:12:47.773Z,759.5
2023-01-19T22:14:31.404Z,757.2
2023-01-19T22:16:15.118Z,758.7
2023-01-19T22:17:58.826Z,759.5
2023-01-19T22:21:26.174Z,769.8
2023-01-19T22:23:09.868Z,772.7
2023-01-19T22:24:53.576Z,774.2
2023-01-19T22:26:37.273Z,772.2
2023-01-19T22:28:20.999Z,771.3
2023-01-19T22:30:04.678Z,770.8
2023-01-19T22:31:48.373Z,771.1
2023-01-19T22:33:32.067Z,771
2023-01-19T22:35:15.774Z,774.3
2023-01-19T22:36:59.468Z,776.2